Amherst, Massachusetts
Current Conditions -  °F | °C
As of 4:16 AM on Thursday 23 Oct 2014 (Local Time) from KCEF Reporting Station
Drizzle Drizzle  
Wind Chill: 42°   Ceiling: 2100
Heat Index: 48°   Visibility: 10mi
Dew Point: 46°   Wind: 15mph
Humidity: 93%   Direction: 30°NNE
Pressure: 29.74"   Gusts: NA
Location:  42.38°N, 72.52°W
Report Text: KCEF 230816Z AUTO 03013KT 10SM -DZ OVC021 09/08 A2974 RMK AO2
Loading
Personal Weather Stations






























Interactive Weather Map
Tropical Storm Tracking
New forecast layout! Learn more

10-Day Weather Forecast

Advertisements
Track Severe Weather on mobile